Time;durP1;ratioP1;P1;durP2;ratioP2;P2;SDS_P1;SDS_P2;PMS_P1;PMS_P2;Temp;Humidity;BMP_temperature;BMP_pressure;BME280_temperature;BME280_humidity;BME280_pressure;Samples;Min_cycle;Max_cycle;Signal;HPM_P1;HPM_P2
2023/01/20 00:01:35;;;;;;;12.88;8.10;;;4.20;99.90;;;;;;5053085;28;20261;-71
2023/01/20 00:04:04;;;;;;;13.93;8.57;;;4.20;99.90;;;;;;5036390;28;20189;-70
2023/01/20 00:06:31;;;;;;;10.32;8.05;;;4.20;99.90;;;;;;5019444;28;20176;-71
2023/01/20 00:09:01;;;;;;;16.55;8.90;;;4.20;99.90;;;;;;5019870;28;20197;-71
2023/01/20 00:11:30;;;;;;;14.82;8.02;;;4.20;99.90;;;;;;5018559;28;20172;-71
2023/01/20 00:13:59;;;;;;;13.60;8.70;;;4.20;99.90;;;;;;5034001;28;20235;-71
2023/01/20 00:16:30;;;;;;;12.60;9.05;;;4.20;99.90;;;;;;5017280;28;20233;-70
2023/01/20 00:19:00;;;;;;;11.93;8.77;;;4.20;99.90;;;;;;5033967;28;20165;-70
2023/01/20 00:21:26;;;;;;;14.75;9.35;;;4.20;99.90;;;;;;5032835;28;20162;-70
2023/01/20 00:23:52;;;;;;;15.20;9.75;;;4.20;99.90;;;;;;5034259;28;20215;-71
2023/01/20 00:26:21;;;;;;;11.80;8.00;;;4.20;99.90;;;;;;5031393;28;20183;-70
2023/01/20 00:28:48;;;;;;;13.60;8.52;;;4.20;99.90;;;;;;5008586;28;20231;-71
2023/01/20 00:31:20;;;;;;;11.77;8.98;;;4.20;99.90;;;;;;5000051;28;20617;-71
2023/01/20 00:33:50;;;;;;;12.48;9.00;;;4.20;99.90;;;;;;5016268;28;20161;-71
2023/01/20 00:36:17;;;;;;;17.10;9.98;;;4.20;99.90;;;;;;5033946;28;20157;-70
2023/01/20 00:38:46;;;;;;;16.67;9.02;;;4.20;99.90;;;;;;5033728;28;20591;-71
2023/01/20 00:41:12;;;;;;;14.75;10.00;;;4.20;99.90;;;;;;4999792;28;20584;-70
2023/01/20 00:43:40;;;;;;;13.35;8.68;;;4.20;99.90;;;;;;5016194;28;20213;-70
2023/01/20 00:46:09;;;;;;;11.83;8.20;;;4.20;99.90;;;;;;4999740;28;20197;-71
2023/01/20 00:48:35;;;;;;;13.30;9.80;;;4.20;99.90;;;;;;4999563;28;20470;-71
2023/01/20 00:51:04;;;;;;;17.25;9.93;;;4.20;99.90;;;;;;5015732;28;20170;-70
2023/01/20 00:53:33;;;;;;;13.95;9.75;;;4.20;99.90;;;;;;5015862;28;20205;-71
2023/01/20 00:56:05;;;;;;;13.00;9.38;;;4.20;99.90;;;;;;5046073;28;20573;-70
2023/01/20 00:58:35;;;;;;;19.15;10.32;;;4.20;99.90;;;;;;5053615;28;20204;-71
2023/01/20 01:01:08;;;;;;;13.27;9.43;;;4.20;99.90;;;;;;5003175;28;20184;-71
2023/01/20 01:03:36;;;;;;;13.70;9.52;;;4.20;99.90;;;;;;5019103;28;20670;-71
2023/01/20 01:06:15;;;;;;;13.48;9.55;;;4.20;99.90;;;;;;5018875;28;20668;-70
2023/01/20 01:08:43;;;;;;;18.13;10.95;;;4.20;99.90;;;;;;5053068;28;20212;-71
2023/01/20 01:11:12;;;;;;;12.90;9.30;;;4.20;99.90;;;;;;5053723;23;20232;-70
2023/01/20 01:13:38;;;;;;;15.23;9.23;;;4.20;99.90;;;;;;5031538;28;20203;-70
2023/01/20 01:16:14;;;;;;;13.95;9.40;;;4.20;99.90;;;;;;4978294;28;20265;-72
2023/01/20 01:18:42;;;;;;;15.18;10.82;;;4.20;99.90;;;;;;4979516;28;20534;-71
2023/01/20 01:21:12;;;;;;;13.05;9.13;;;4.20;99.90;;;;;;4995815;28;20186;-72
2023/01/20 01:23:41;;;;;;;13.35;9.40;;;4.20;99.90;;;;;;4995727;28;20170;-71
2023/01/20 01:26:07;;;;;;;17.42;9.73;;;4.20;99.90;;;;;;4995748;28;20193;-71
2023/01/20 01:28:35;;;;;;;17.60;10.70;;;4.20;99.90;;;;;;5012136;28;20289;-71
2023/01/20 01:31:03;;;;;;;13.52;9.23;;;4.20;99.90;;;;;;4995505;28;20186;-72
2023/01/20 01:33:29;;;;;;;15.70;11.20;;;4.20;99.90;;;;;;4995501;28;20205;-71
2023/01/20 01:36:00;;;;;;;17.63;10.85;;;4.20;99.90;;;;;;5012872;28;20198;-72
2023/01/20 01:38:27;;;;;;;15.70;10.40;;;4.20;99.90;;;;;;4979295;28;20188;-72
2023/01/20 01:40:58;;;;;;;16.10;10.20;;;4.20;99.90;;;;;;4978500;28;20280;-72
2023/01/20 01:43:29;;;;;;;19.85;10.93;;;4.20;99.90;;;;;;5011221;28;20170;-71
2023/01/20 01:45:58;;;;;;;16.38;10.70;;;4.20;99.90;;;;;;4995264;28;20212;-72
2023/01/20 01:48:30;;;;;;;19.67;10.70;;;4.20;99.90;;;;;;5010915;28;20212;-71
2023/01/20 01:51:04;;;;;;;23.13;12.60;;;4.20;99.90;;;;;;4995402;28;20201;-72
2023/01/20 01:53:40;;;;;;;18.77;12.75;;;4.20;99.90;;;;;;4995279;28;20186;-72
2023/01/20 01:56:07;;;;;;;21.08;12.40;;;4.20;99.90;;;;;;4978194;28;20556;-70
2023/01/20 01:58:36;;;;;;;20.60;11.95;;;4.20;99.90;;;;;;5012429;28;20501;-72
2023/01/20 02:01:02;;;;;;;20.15;12.50;;;4.20;99.90;;;;;;4994689;28;20178;-72
2023/01/20 02:03:43;;;;;;;19.67;12.40;;;4.20;99.90;;;;;;5012480;28;20640;-72
2023/01/20 02:06:10;;;;;;;19.65;12.85;;;4.20;99.90;;;;;;4994968;28;20215;-71
2023/01/20 02:08:36;;;;;;;24.20;13.93;;;4.20;99.90;;;;;;4994360;28;20236;-71
2023/01/20 02:11:13;;;;;;;21.42;14.35;;;4.20;99.90;;;;;;4995729;28;20212;-72
2023/01/20 02:13:42;;;;;;;24.70;13.90;;;4.20;99.90;;;;;;5012385;28;20202;-72
2023/01/20 02:16:19;;;;;;;23.38;14.02;;;4.10;99.90;;;;;;4994970;28;20533;-71
2023/01/20 02:18:58;;;;;;;25.00;14.70;;;4.20;99.90;;;;;;5012061;28;20697;-72
2023/01/20 02:21:37;;;;;;;23.08;14.25;;;4.10;99.90;;;;;;4994417;28;20256;-72
2023/01/20 02:24:32;;;;;;;26.30;14.73;;;4.10;99.90;;;;;;4994777;28;20295;-72
2023/01/20 02:27:23;;;;;;;25.13;14.63;;;4.20;99.90;;;;;;4994608;28;20189;-71
2023/01/20 02:30:17;;;;;;;25.67;15.20;;;4.10;99.90;;;;;;4993927;28;20197;-72
2023/01/20 02:32:57;;;;;;;25.80;15.68;;;4.20;99.90;;;;;;4994522;28;20194;-70
2023/01/20 02:35:44;;;;;;;30.30;15.75;;;4.10;99.90;;;;;;4994499;28;20201;-71
2023/01/20 02:38:13;;;;;;;24.20;14.93;;;4.10;99.90;;;;;;4978662;28;20173;-72
2023/01/20 02:40:42;;;;;;;25.73;16.52;;;4.10;99.90;;;;;;4994592;28;20170;-72
2023/01/20 02:43:19;;;;;;;27.08;15.18;;;4.10;99.90;;;;;;4994035;28;20202;-71
2023/01/20 02:46:17;;;;;;;23.42;14.60;;;4.10;99.90;;;;;;4994498;28;20201;-71
2023/01/20 02:48:50;;;;;;;23.00;14.45;;;4.10;99.90;;;;;;4988736;28;20643;-72
2023/01/20 02:51:28;;;;;;;25.42;15.18;;;4.10;99.90;;;;;;4994401;28;20717;-71
2023/01/20 02:54:05;;;;;;;27.70;14.48;;;4.10;99.90;;;;;;4978390;28;20213;-72
2023/01/20 02:56:33;;;;;;;26.23;16.20;;;4.10;99.90;;;;;;4992937;28;20204;-72
2023/01/20 02:59:09;;;;;;;24.50;16.10;;;4.10;99.90;;;;;;4994549;28;20170;-72
2023/01/20 03:01:42;;;;;;;24.23;15.77;;;4.10;99.90;;;;;;4978333;28;20177;-71
2023/01/20 03:04:15;;;;;;;26.23;15.07;;;4.10;99.90;;;;;;4994311;28;20208;-72
2023/01/20 03:06:48;;;;;;;26.88;15.50;;;4.10;99.90;;;;;;4994016;28;20181;-71
2023/01/20 03:09:20;;;;;;;24.92;14.50;;;4.10;99.90;;;;;;4994343;28;20189;-71
2023/01/20 03:11:55;;;;;;;25.25;15.25;;;4.10;99.90;;;;;;5010464;28;20201;-72
2023/01/20 03:14:23;;;;;;;23.33;14.43;;;4.10;99.90;;;;;;4978191;28;20200;-72
2023/01/20 03:16:49;;;;;;;24.00;16.90;;;4.10;99.90;;;;;;4993593;28;20183;-71
2023/01/20 03:19:17;;;;;;;22.50;14.23;;;4.10;99.90;;;;;;4977500;28;20547;-71
2023/01/20 03:21:43;;;;;;;26.80;16.30;;;4.10;99.90;;;;;;4993549;28;20185;-71
2023/01/20 03:24:10;;;;;;;24.90;15.15;;;4.20;99.90;;;;;;5011541;28;20190;-71
2023/01/20 03:26:37;;;;;;;25.23;15.35;;;4.20;99.90;;;;;;4993617;28;20277;-71
2023/01/20 03:29:07;;;;;;;23.95;14.20;;;4.20;99.90;;;;;;5017310;28;20188;-71
2023/01/20 03:31:46;;;;;;;26.00;14.30;;;4.20;99.90;;;;;;5031157;28;20173;-71
2023/01/20 03:34:16;;;;;;;22.13;14.40;;;4.20;99.90;;;;;;4986569;28;20252;-71
2023/01/20 03:36:44;;;;;;;21.05;13.32;;;4.20;99.90;;;;;;4994015;28;20201;-71
2023/01/20 03:39:11;;;;;;;23.42;13.60;;;4.20;99.90;;;;;;4993704;28;20186;-71
2023/01/20 03:41:46;;;;;;;22.80;13.93;;;4.20;99.90;;;;;;4994144;28;20639;-71
2023/01/20 03:44:40;;;;;;;24.55;14.75;;;4.20;99.90;;;;;;4996853;28;20291;-71
2023/01/20 03:47:16;;;;;;;22.20;13.98;;;4.20;99.90;;;;;;5015014;28;20665;-71
2023/01/20 03:50:18;;;;;;;23.95;14.98;;;4.20;99.90;;;;;;4981038;28;20240;-71
2023/01/20 03:53:03;;;;;;;23.13;14.52;;;4.20;99.90;;;;;;4950859;28;20221;-71
2023/01/20 03:56:00;;;;;;;26.77;14.57;;;4.20;99.90;;;;;;5005136;28;20679;-71
2023/01/20 03:58:36;;;;;;;21.83;13.80;;;4.20;99.90;;;;;;4997578;28;20263;-71
2023/01/20 04:01:06;;;;;;;22.90;13.40;;;4.20;99.90;;;;;;5013134;28;20181;-71
2023/01/20 04:03:39;;;;;;;21.92;13.63;;;4.10;99.90;;;;;;4997011;28;20507;-71
2023/01/20 04:06:10;;;;;;;20.95;13.55;;;4.10;99.90;;;;;;4997225;28;20277;-71
2023/01/20 04:08:43;;;;;;;25.15;14.40;;;4.10;99.90;;;;;;4989191;28;20258;-71
2023/01/20 04:11:09;;;;;;;22.20;13.05;;;4.10;99.90;;;;;;5016392;28;20220;-70
2023/01/20 04:13:35;;;;;;;24.85;12.60;;;4.10;99.90;;;;;;5000254;28;20176;-71
2023/01/20 04:16:12;;;;;;;21.50;13.95;;;4.10;99.90;;;;;;5017001;28;20544;-71
2023/01/20 04:18:44;;;;;;;22.20;12.98;;;4.10;99.90;;;;;;5016251;28;20543;-71
2023/01/20 04:21:19;;;;;;;22.63;13.25;;;4.10;99.90;;;;;;5016338;28;20172;-71
2023/01/20 04:23:56;;;;;;;21.90;12.88;;;4.10;99.90;;;;;;5033992;28;20252;-71
2023/01/20 04:26:24;;;;;;;21.95;12.55;;;4.10;99.90;;;;;;4997096;28;20209;-71
2023/01/20 04:28:50;;;;;;;19.02;11.88;;;4.10;99.90;;;;;;4996157;28;20213;-71
2023/01/20 04:31:16;;;;;;;22.80;12.87;;;4.10;99.90;;;;;;4996737;28;20543;-71
2023/01/20 04:33:42;;;;;;;17.60;11.10;;;4.10;99.90;;;;;;4980380;28;20424;-71
2023/01/20 04:36:16;;;;;;;23.45;13.75;;;4.10;99.90;;;;;;5014330;28;20615;-71
2023/01/20 04:38:42;;;;;;;21.70;12.45;;;4.10;99.90;;;;;;4990155;28;20189;-71
2023/01/20 04:41:11;;;;;;;25.90;12.77;;;4.20;99.90;;;;;;4999457;28;20177;-71
2023/01/20 04:43:37;;;;;;;23.08;12.93;;;4.20;99.90;;;;;;5032259;28;20244;-71
2023/01/20 04:46:03;;;;;;;16.52;11.35;;;4.20;99.90;;;;;;5016176;28;20251;-71
2023/01/20 04:48:29;;;;;;;20.83;12.10;;;4.20;99.90;;;;;;5015832;28;20234;-71
2023/01/20 04:50:55;;;;;;;19.17;12.33;;;4.20;99.90;;;;;;5015607;28;20165;-71
2023/01/20 04:53:21;;;;;;;19.90;11.50;;;4.20;99.90;;;;;;5001599;28;20440;-71
2023/01/20 04:55:47;;;;;;;19.80;12.27;;;4.20;99.90;;;;;;5013366;28;20926;-71
2023/01/20 04:58:15;;;;;;;17.87;11.90;;;4.20;99.90;;;;;;4995634;28;20448;-71
2023/01/20 05:00:41;;;;;;;19.00;11.75;;;4.20;99.90;;;;;;4996059;28;20490;-71
2023/01/20 05:03:09;;;;;;;17.27;11.23;;;4.20;99.90;;;;;;5013193;28;20277;-71
2023/01/20 05:05:35;;;;;;;21.90;11.95;;;4.20;99.90;;;;;;4996016;28;20451;-71
2023/01/20 05:08:04;;;;;;;18.63;10.35;;;4.20;99.90;;;;;;5012128;28;20217;-71
2023/01/20 05:10:31;;;;;;;17.02;10.95;;;4.20;99.90;;;;;;4995664;28;20177;-71
2023/01/20 05:12:58;;;;;;;19.52;12.05;;;4.20;99.90;;;;;;5013040;28;20236;-71
2023/01/20 05:15:24;;;;;;;21.00;11.60;;;4.20;99.90;;;;;;5013012;28;20283;-71
2023/01/20 05:17:50;;;;;;;21.63;12.30;;;4.20;99.90;;;;;;4979786;28;20285;-71
2023/01/20 05:20:17;;;;;;;20.73;12.27;;;4.20;99.90;;;;;;5013130;28;20245;-71
2023/01/20 05:22:44;;;;;;;18.80;12.18;;;4.20;99.90;;;;;;4995705;28;20423;-71
2023/01/20 05:25:10;;;;;;;24.38;13.90;;;4.20;99.90;;;;;;4994967;28;20208;-71
2023/01/20 05:27:36;;;;;;;23.00;12.57;;;4.20;99.90;;;;;;4995172;28;20209;-71
2023/01/20 05:30:06;;;;;;;18.95;12.60;;;4.20;99.90;;;;;;5013196;28;20192;-70
2023/01/20 05:32:34;;;;;;;19.65;12.52;;;4.20;99.90;;;;;;4995682;28;20694;-70
2023/01/20 05:35:00;;;;;;;22.88;13.07;;;4.20;99.90;;;;;;4995636;28;20198;-71
2023/01/20 05:37:27;;;;;;;24.23;13.13;;;4.20;99.90;;;;;;5013035;28;20507;-70
2023/01/20 05:39:52;;;;;;;22.23;13.20;;;4.20;99.90;;;;;;4995553;28;20757;-70
2023/01/20 05:42:19;;;;;;;19.37;13.13;;;4.20;99.90;;;;;;5011991;28;20184;-71
2023/01/20 05:44:45;;;;;;;20.85;12.65;;;4.20;99.90;;;;;;5011949;28;21007;-70
2023/01/20 05:47:11;;;;;;;24.47;13.53;;;4.20;99.90;;;;;;5012240;28;20197;-71
2023/01/20 05:49:37;;;;;;;22.00;12.95;;;4.20;99.90;;;;;;4995552;28;20432;-71
2023/01/20 05:52:06;;;;;;;19.73;11.67;;;4.20;99.90;;;;;;5011636;28;20208;-70
2023/01/20 05:54:35;;;;;;;21.20;13.57;;;4.20;99.90;;;;;;5011682;28;20467;-71
2023/01/20 05:57:04;;;;;;;21.30;13.20;;;4.20;99.90;;;;;;4994672;28;20228;-71
2023/01/20 05:59:30;;;;;;;25.45;13.63;;;4.20;99.90;;;;;;4978543;28;20471;-71
2023/01/20 06:01:58;;;;;;;20.92;12.40;;;4.20;99.90;;;;;;5012985;28;20724;-70
2023/01/20 06:04:24;;;;;;;23.30;12.13;;;4.20;99.90;;;;;;5011048;28;20296;-71
2023/01/20 06:06:50;;;;;;;19.30;13.00;;;4.20;99.90;;;;;;4994711;28;20420;-71
2023/01/20 06:09:16;;;;;;;19.47;12.63;;;4.20;99.90;;;;;;4995323;28;20190;-71
2023/01/20 06:11:45;;;;;;;18.65;12.35;;;4.20;99.90;;;;;;5010622;28;20985;-71
2023/01/20 06:14:11;;;;;;;19.83;11.50;;;4.20;99.90;;;;;;4995211;28;20282;-71
2023/01/20 06:16:37;;;;;;;20.10;12.55;;;4.20;99.90;;;;;;5010959;28;20439;-71
2023/01/20 06:19:03;;;;;;;23.27;12.43;;;4.20;99.90;;;;;;5012451;28;20705;-71
2023/01/20 06:21:34;;;;;;;17.05;11.60;;;4.20;99.90;;;;;;5000967;28;20200;-71
2023/01/20 06:24:00;;;;;;;16.80;11.50;;;4.20;99.90;;;;;;4959506;28;20293;-71
2023/01/20 06:26:27;;;;;;;18.35;11.20;;;4.20;99.90;;;;;;4991734;28;20652;-71
2023/01/20 06:28:57;;;;;;;17.92;11.40;;;4.20;99.90;;;;;;4989100;28;20213;-72
2023/01/20 06:31:23;;;;;;;16.88;11.50;;;4.20;99.90;;;;;;4994968;28;20926;-72
2023/01/20 06:33:54;;;;;;;18.50;10.87;;;4.20;99.90;;;;;;4979211;28;20173;-78
2023/01/20 06:36:20;;;;;;;18.70;12.38;;;4.20;99.90;;;;;;4994831;28;20511;-69
2023/01/20 06:38:51;;;;;;;17.67;11.73;;;4.20;99.90;;;;;;4993079;28;20300;-74
2023/01/20 06:41:20;;;;;;;18.00;10.90;;;4.20;99.90;;;;;;4978592;28;20838;-73
2023/01/20 06:43:46;;;;;;;17.83;11.70;;;4.20;99.90;;;;;;4993959;28;21136;-77
2023/01/20 06:46:14;;;;;;;19.00;11.88;;;4.20;99.90;;;;;;5011722;28;20206;-76
2023/01/20 06:48:42;;;;;;;19.60;13.25;;;4.20;99.90;;;;;;4977458;28;20211;-72
2023/01/20 06:51:17;;;;;;;18.10;11.73;;;4.20;99.90;;;;;;5010514;28;20177;-71
2023/01/20 06:53:44;;;;;;;18.55;11.95;;;4.20;99.90;;;;;;5010692;28;20288;-72
2023/01/20 06:56:13;;;;;;;19.88;11.35;;;4.20;99.90;;;;;;5010501;28;20178;-72
2023/01/20 06:58:40;;;;;;;18.88;11.65;;;4.20;99.90;;;;;;5007775;28;20267;-71
2023/01/20 07:01:30;;;;;;;16.80;11.38;;;4.20;99.90;;;;;;4973526;28;20674;-71
2023/01/20 07:03:56;;;;;;;19.50;12.82;;;4.20;99.90;;;;;;4963816;28;20290;-71
2023/01/20 07:06:37;;;;;;;17.55;10.32;;;4.20;99.90;;;;;;4992679;28;20185;-72
2023/01/20 07:09:07;;;;;;;18.73;12.57;;;4.20;99.90;;;;;;4966614;28;20182;-73
2023/01/20 07:11:36;;;;;;;17.30;10.77;;;4.20;99.90;;;;;;4987253;28;20224;-73
2023/01/20 07:14:03;;;;;;;20.83;12.45;;;4.20;99.90;;;;;;4988440;28;20585;-72
2023/01/20 07:16:32;;;;;;;20.92;12.73;;;4.20;99.90;;;;;;4983104;28;20178;-73
2023/01/20 07:18:58;;;;;;;19.20;11.13;;;4.20;99.90;;;;;;4995436;28;20526;-72
2023/01/20 07:21:24;;;;;;;18.70;11.02;;;4.20;99.90;;;;;;4987246;28;20200;-73
2023/01/20 07:23:52;;;;;;;16.02;11.10;;;4.20;99.90;;;;;;4996105;28;20185;-73
2023/01/20 07:26:23;;;;;;;17.88;11.25;;;4.20;99.90;;;;;;4977094;28;20177;-73
2023/01/20 07:28:49;;;;;;;16.65;11.43;;;4.20;99.90;;;;;;4979947;28;20229;-72
2023/01/20 07:31:18;;;;;;;17.70;10.98;;;4.20;99.90;;;;;;4995713;28;20197;-73
2023/01/20 07:33:44;;;;;;;19.33;11.98;;;4.20;99.90;;;;;;4996019;28;20661;-72
2023/01/20 07:36:11;;;;;;;17.73;12.00;;;4.20;99.90;;;;;;5010602;28;20178;-72
2023/01/20 07:38:38;;;;;;;21.42;12.27;;;4.20;99.90;;;;;;4977485;28;20875;-72
2023/01/20 07:41:07;;;;;;;21.65;12.68;;;4.20;99.90;;;;;;4962173;28;20186;-70
2023/01/20 07:43:33;;;;;;;16.95;12.10;;;4.20;99.90;;;;;;4979582;28;20189;-73
2023/01/20 07:46:03;;;;;;;21.30;12.32;;;4.20;99.90;;;;;;4993166;28;20229;-72
2023/01/20 07:48:31;;;;;;;20.80;12.50;;;4.20;99.90;;;;;;5002846;28;20229;-73
2023/01/20 07:51:04;;;;;;;20.20;11.98;;;4.20;99.90;;;;;;4990101;28;20627;-73
2023/01/20 07:53:42;;;;;;;22.40;12.52;;;4.20;99.90;;;;;;5011687;28;20228;-73
2023/01/20 07:56:17;;;;;;;19.10;12.20;;;4.20;99.90;;;;;;5012811;28;20178;-75
2023/01/20 07:58:44;;;;;;;18.52;11.90;;;4.20;99.90;;;;;;4967267;28;20549;-72
2023/01/20 08:01:13;;;;;;;22.77;12.80;;;4.20;99.90;;;;;;5007034;28;20228;-72
2023/01/20 08:03:42;;;;;;;19.80;11.55;;;4.20;99.90;;;;;;4972440;28;20211;-72
2023/01/20 08:06:11;;;;;;;22.85;11.93;;;4.20;99.90;;;;;;4997551;28;20661;-72
2023/01/20 08:08:39;;;;;;;21.42;13.60;;;4.20;99.90;;;;;;4990518;28;20201;-72
2023/01/20 08:11:08;;;;;;;19.00;12.10;;;4.20;99.90;;;;;;4974461;28;20209;-73
2023/01/20 08:13:36;;;;;;;20.33;11.98;;;4.20;99.90;;;;;;4983955;28;20240;-71
2023/01/20 08:16:08;;;;;;;17.52;11.30;;;4.20;99.90;;;;;;5006339;28;20187;-72
2023/01/20 08:18:37;;;;;;;19.88;12.00;;;4.20;99.90;;;;;;4996654;28;20656;-72
2023/01/20 08:21:07;;;;;;;22.80;13.30;;;4.20;99.90;;;;;;4961117;28;20691;-72
2023/01/20 08:23:36;;;;;;;19.30;11.95;;;4.20;99.90;;;;;;4975998;28;20205;-72
2023/01/20 08:26:08;;;;;;;18.20;11.80;;;4.20;99.90;;;;;;4960116;28;20167;-72
2023/01/20 08:28:35;;;;;;;21.02;13.15;;;4.20;99.90;;;;;;4991739;28;20190;-72
2023/01/20 08:31:07;;;;;;;19.00;12.00;;;4.20;99.90;;;;;;4996656;28;20256;-72
2023/01/20 08:33:38;;;;;;;19.88;11.63;;;4.20;99.90;;;;;;4962315;28;20197;-69
2023/01/20 08:36:13;;;;;;;19.65;13.45;;;4.20;99.90;;;;;;4998551;28;20187;-70
2023/01/20 08:38:43;;;;;;;19.55;13.45;;;4.20;99.90;;;;;;5003457;28;20274;-70
2023/01/20 08:41:24;;;;;;;19.73;11.23;;;4.20;99.90;;;;;;4978769;28;20671;-70
2023/01/20 08:43:54;;;;;;;19.17;12.30;;;4.20;99.90;;;;;;4976569;28;20174;-70
2023/01/20 08:46:21;;;;;;;18.70;12.45;;;4.20;99.90;;;;;;4962422;28;20186;-70
2023/01/20 08:48:49;;;;;;;18.30;11.35;;;4.20;99.90;;;;;;4993218;28;20680;-70
2023/01/20 08:51:22;;;;;;;22.83;12.30;;;4.20;99.90;;;;;;4963706;28;20672;-70
2023/01/20 08:53:48;;;;;;;24.52;13.00;;;4.20;99.90;;;;;;4975930;28;20333;-70
2023/01/20 08:56:15;;;;;;;16.08;11.32;;;4.20;99.90;;;;;;5005682;28;20189;-70
2023/01/20 08:58:41;;;;;;;17.45;12.48;;;4.20;99.90;;;;;;4993022;28;20253;-70
2023/01/20 09:01:13;;;;;;;21.50;12.77;;;4.20;99.90;;;;;;4976989;28;20317;-70
2023/01/20 09:03:39;;;;;;;19.20;12.60;;;4.20;99.90;;;;;;4978812;28;20768;-70
2023/01/20 09:06:06;;;;;;;19.27;12.07;;;4.20;99.90;;;;;;5007665;28;20189;-71
2023/01/20 09:08:33;;;;;;;17.48;12.05;;;4.20;99.90;;;;;;4998267;28;20309;-70
2023/01/20 09:11:11;;;;;;;15.88;11.45;;;4.20;99.90;;;;;;5006083;28;20189;-70
2023/01/20 09:13:37;;;;;;;20.13;12.45;;;4.20;99.90;;;;;;4982239;28;20201;-70
2023/01/20 09:16:04;;;;;;;20.17;12.20;;;4.20;99.90;;;;;;4976361;28;20189;-70
2023/01/20 09:18:31;;;;;;;19.02;12.32;;;4.20;99.90;;;;;;4975876;28;20437;-70
2023/01/20 09:20:58;;;;;;;19.33;12.57;;;4.20;99.90;;;;;;5068530;23;20397;-71
2023/01/20 09:23:25;;;;;;;19.40;13.15;;;4.20;99.90;;;;;;5060765;28;20207;-71
2023/01/20 09:25:51;;;;;;;18.40;12.73;;;4.30;99.90;;;;;;5047460;28;20211;-71
2023/01/20 09:28:17;;;;;;;19.65;12.32;;;4.30;99.90;;;;;;5032834;28;20250;-71
2023/01/20 09:30:43;;;;;;;18.97;12.63;;;4.30;99.90;;;;;;5041387;28;20180;-71
2023/01/20 09:33:15;;;;;;;18.13;11.70;;;4.30;99.90;;;;;;4997413;28;20411;-71
2023/01/20 09:35:41;;;;;;;17.48;11.50;;;4.30;99.90;;;;;;4997778;28;20204;-71
2023/01/20 09:44:40;;;;;;;15.75;11.30;;;4.20;99.90;;;;;;5036280;28;20206;-72
2023/01/20 09:47:21;;;;;;;15.55;10.43;;;4.20;99.90;;;;;;5024259;28;20591;-72
2023/01/20 09:53:04;;;;;;;19.27;11.75;;;4.20;99.90;;;;;;5040757;28;20164;-71
2023/01/20 09:56:00;;;;;;;17.63;11.93;;;4.20;99.90;;;;;;5032104;28;20295;-71
2023/01/20 09:58:37;;;;;;;17.48;12.48;;;4.20;99.90;;;;;;5043476;28;20181;-74
2023/01/20 10:01:20;;;;;;;18.60;11.25;;;4.20;99.90;;;;;;5027656;28;20554;-72
2023/01/20 10:03:49;;;;;;;18.58;11.95;;;4.20;99.90;;;;;;4999246;28;20211;-71
2023/01/20 10:06:28;;;;;;;15.02;11.13;;;4.20;99.90;;;;;;5032037;28;20538;-72
2023/01/20 10:09:02;;;;;;;14.65;10.55;;;4.20;99.90;;;;;;5031946;28;20276;-71
2023/01/20 10:11:37;;;;;;;17.45;11.30;;;4.20;99.90;;;;;;4982708;28;20220;-70
2023/01/20 10:14:19;;;;;;;13.75;10.18;;;4.20;99.90;;;;;;5046129;28;20555;-72
2023/01/20 10:17:11;;;;;;;14.57;10.90;;;4.20;99.90;;;;;;5033557;28;20180;-72
2023/01/20 10:19:55;;;;;;;16.42;11.55;;;4.20;99.90;;;;;;5033511;28;20192;-67
2023/01/20 10:22:43;;;;;;;17.52;11.48;;;4.20;99.90;;;;;;5034412;28;20689;-73
2023/01/20 10:25:16;;;;;;;16.38;11.32;;;4.20;99.90;;;;;;5018532;28;20323;-71
2023/01/20 10:28:09;;;;;;;16.75;10.35;;;4.20;99.90;;;;;;5068042;28;20196;-69
2023/01/20 10:30:38;;;;;;;18.33;11.60;;;4.20;99.90;;;;;;5065694;28;20517;-69
2023/01/20 10:33:09;;;;;;;19.85;12.52;;;4.20;99.90;;;;;;5033865;28;20624;-69
2023/01/20 10:35:46;;;;;;;17.60;11.93;;;4.20;99.90;;;;;;5051367;28;20193;-73
2023/01/20 10:38:38;;;;;;;13.57;9.93;;;4.20;99.90;;;;;;5051771;28;20179;-72
2023/01/20 10:41:50;;;;;;;17.05;11.18;;;4.20;99.90;;;;;;5011598;28;20224;-73
2023/01/20 10:44:22;;;;;;;13.55;9.95;;;4.20;99.90;;;;;;4988243;28;20212;-73
2023/01/20 10:47:06;;;;;;;14.95;10.30;;;4.30;99.90;;;;;;5012969;28;20252;-73
2023/01/20 10:49:55;;;;;;;17.33;11.70;;;4.30;99.90;;;;;;5030646;28;20228;-74
2023/01/20 10:52:40;;;;;;;17.10;10.40;;;4.30;99.90;;;;;;5043452;28;20206;-73
2023/01/20 10:55:20;;;;;;;15.07;10.25;;;4.30;99.90;;;;;;5054906;28;20200;-74
2023/01/20 10:57:56;;;;;;;14.32;10.45;;;4.20;99.90;;;;;;5052254;28;20234;-73
2023/01/20 11:00:28;;;;;;;17.10;11.13;;;4.30;99.90;;;;;;5026984;28;20192;-75
2023/01/20 11:03:00;;;;;;;17.85;10.57;;;4.30;99.90;;;;;;5001028;28;20169;-73
2023/01/20 11:05:36;;;;;;;19.00;10.70;;;4.30;99.90;;;;;;5018099;28;20342;-73
2023/01/20 11:08:29;;;;;;;14.10;10.27;;;4.30;99.90;;;;;;5053939;28;20239;-73
2023/01/20 11:11:11;;;;;;;17.02;11.45;;;4.30;99.90;;;;;;5035608;28;20192;-73
2023/01/20 11:13:39;;;;;;;15.02;10.50;;;4.30;99.90;;;;;;5049094;28;20259;-73
2023/01/20 11:16:23;;;;;;;19.73;10.10;;;4.30;99.90;;;;;;5036067;28;20207;-73
2023/01/20 11:19:03;;;;;;;15.35;10.45;;;4.30;99.90;;;;;;5036948;28;20196;-73
2023/01/20 11:21:35;;;;;;;17.25;11.50;;;4.30;99.90;;;;;;5036515;28;20231;-73
2023/01/20 11:24:03;;;;;;;15.63;10.85;;;4.30;99.90;;;;;;5020733;28;20208;-73
2023/01/20 11:26:36;;;;;;;15.57;10.20;;;4.30;99.90;;;;;;5054540;28;20224;-73
2023/01/20 11:29:07;;;;;;;12.82;9.35;;;4.30;99.90;;;;;;5049759;28;20195;-73
2023/01/20 11:31:51;;;;;;;14.45;9.48;;;4.30;99.90;;;;;;5036261;28;20542;-73
2023/01/20 11:34:19;;;;;;;14.65;9.52;;;4.30;99.90;;;;;;5036613;28;20211;-74
2023/01/20 11:36:46;;;;;;;13.57;9.20;;;4.40;99.90;;;;;;5036433;28;20191;-73
2023/01/20 11:39:32;;;;;;;13.70;8.98;;;4.40;99.90;;;;;;5036433;28;20833;-73
2023/01/20 11:42:09;;;;;;;15.60;8.93;;;4.40;99.90;;;;;;5033443;28;20207;-75
2023/01/20 11:44:53;;;;;;;16.95;9.65;;;4.40;99.90;;;;;;5059493;28;20212;-72
2023/01/20 11:47:25;;;;;;;14.75;9.38;;;4.40;99.90;;;;;;5016562;28;20243;-72
2023/01/20 11:50:07;;;;;;;14.60;9.45;;;4.40;99.90;;;;;;5036517;28;20271;-72
2023/01/20 11:52:36;;;;;;;13.90;8.45;;;4.40;99.90;;;;;;5036384;28;20218;-73
2023/01/20 11:55:11;;;;;;;13.48;9.00;;;4.40;99.90;;;;;;5036697;28;20247;-73
2023/01/20 11:57:49;;;;;;;13.52;9.13;;;4.40;99.90;;;;;;5035971;28;20183;-71
2023/01/20 12:00:15;;;;;;;12.15;7.95;;;4.40;99.90;;;;;;5030928;28;20198;-73
2023/01/20 12:02:44;;;;;;;15.10;8.35;;;4.40;99.90;;;;;;5032073;28;20188;-73
2023/01/20 12:05:33;;;;;;;12.90;8.85;;;4.40;99.90;;;;;;4999592;28;20211;-72
2023/01/20 12:08:03;;;;;;;12.02;8.68;;;4.40;99.90;;;;;;5040839;28;20219;-72
2023/01/20 12:10:35;;;;;;;13.82;7.78;;;4.40;99.90;;;;;;5033575;28;20220;-73
2023/01/20 12:14:18;;;;;;;10.48;7.78;;;4.40;99.90;;;;;;5016368;28;20710;-74
2023/01/20 12:16:25;;;;;;;13.15;8.57;;;4.40;99.90;;;;;;5033275;28;20558;-71
2023/01/20 12:18:56;;;;;;;12.80;8.02;;;4.40;99.90;;;;;;5034849;28;20180;-74
2023/01/20 12:21:28;;;;;;;12.15;8.45;;;4.40;99.90;;;;;;5050000;28;20230;-73
2023/01/20 12:24:11;;;;;;;11.55;8.13;;;4.40;99.90;;;;;;5055069;28;20264;-74
2023/01/20 12:26:38;;;;;;;9.27;7.03;;;4.40;99.90;;;;;;5009137;28;20195;-73
2023/01/20 12:29:09;;;;;;;12.10;7.80;;;4.50;99.90;;;;;;5034112;28;20196;-74
2023/01/20 12:31:35;;;;;;;10.38;7.55;;;4.50;99.90;;;;;;5051092;28;20634;-74
2023/01/20 12:34:07;;;;;;;9.07;6.47;;;4.50;99.90;;;;;;5051269;28;20250;-72
2023/01/20 12:36:48;;;;;;;11.57;7.97;;;4.50;99.90;;;;;;5051337;28;20243;-74
2023/01/20 12:39:35;;;;;;;9.70;6.97;;;4.50;99.90;;;;;;5034153;28;20605;-72
2023/01/20 12:42:23;;;;;;;9.45;6.20;;;4.50;99.90;;;;;;5034752;28;20196;-73
2023/01/20 12:45:12;;;;;;;11.35;7.25;;;4.50;99.90;;;;;;5017586;28;20208;-74
2023/01/20 12:48:02;;;;;;;10.73;7.55;;;4.50;99.90;;;;;;5050941;28;20541;-73
2023/01/20 12:50:46;;;;;;;10.75;6.90;;;4.50;99.90;;;;;;5034481;28;20230;-74
2023/01/20 12:53:37;;;;;;;11.15;6.80;;;4.50;99.90;;;;;;5030787;28;20268;-73
2023/01/20 12:56:35;;;;;;;8.23;6.30;;;4.50;99.90;;;;;;5046067;28;20200;-74
2023/01/20 12:59:23;;;;;;;9.60;6.40;;;4.50;99.90;;;;;;5049542;28;20195;-74
2023/01/20 13:02:06;;;;;;;9.00;6.90;;;4.50;99.90;;;;;;5037383;28;20250;-73
2023/01/20 13:04:57;;;;;;;7.35;6.13;;;4.50;99.90;;;;;;5036006;28;20242;-73
2023/01/20 13:07:45;;;;;;;8.82;6.50;;;4.50;99.90;;;;;;5051467;28;20212;-73
2023/01/20 13:10:26;;;;;;;10.32;6.78;;;4.50;99.90;;;;;;5033686;28;20200;-74
2023/01/20 13:13:23;;;;;;;9.95;7.07;;;4.50;99.90;;;;;;5051556;28;20264;-73
2023/01/20 13:16:43;;;;;;;8.50;6.65;;;4.50;99.90;;;;;;5050649;28;20199;-74
2023/01/20 13:19:14;;;;;;;12.02;7.13;;;4.50;99.90;;;;;;4973745;28;20245;-73